Accueil
METAR-TAF:

METAR-TAF

Aéroports :

Aéroport de Venise-Marco-Polo

Venise, Italie

latitude: 45-30N, longitude: 012-20E, altitude: 2 m

Observation

Le bulletin a été fait il y a 10 minutes, à 09:50 UTC
Vent 3 kt de est/sud-est, variant entre nord-est et sud-ouest
Température 20°C
Humidité 46%
Pression 1017 hPa
Visibilité 10 km ou plus
Nuages épars à une hauteur de 7000 ft

METAR: LIPZ 300950Z 12003KT 050V220 9999 SCT070 20/08 Q1017 NOSIG

Heure: 12:00 (10:00 UTC)

Prévision

Le bulletin a été fait il y a 5 heures et 0 minutes, à 05:00 UTC
Prévision valable du 30 à 06 UTC au 31 à 12 UTC
Vent 8 kt de nord/nord-est
Visibilité 10 km ou plus
Nuages épars à une hauteur de 3000 ft
Evoluant progressivement
du 30 à 08 UTC au 30 à 10 UTC
Vent 10 kt de sud/sud-est
Evoluant progressivement
du 30 à 16 UTC au 30 à 18 UTC
Vent 7 kt de nord/nord-est

TAF: LIPZ 300500Z 3006/3112 03008KT 9999 SCT030 BECMG 3008/3010 15010KT BECMG 3016/3018 03007KT

Observations et prévisions météorologiques de plus de 4000 aéroports (messages METAR et TAF).

Les stations disponibles sont représentées par des disques jaunes et rouges sur la carte.

Passer la souris dessus pour voir le nom de la station.

Cliquer dessus pour voir les observations et prévisions météorologiques.

Pour changer de carte: cliquez sur les boutons verts avec une croix noire pour zoomer, sur le bouton vert avec un tiret pour effectuer un zoom arrière, ou sur les flèches vertes pour les cartes adjacentes.


METAR-TAF: